Time,TemperatureF,DewpointF,PressureIn,WindDirection,WindDirectionDegrees,WindSpeedMPH,WindSpeedGustMPH,Humidity,HourlyPrecipIn,Conditions,Clouds,dailyrainin,SoftwareType,DateUTC
2013-01-21 00:43:00,40.8,35.0,30.09,SW,223,0.0,-999.0,79,-99.99,,,0.00,weatherlink.com 1.10,2013-01-21 05:43:00,
2013-01-21 00:47:00,39.1,32.0,30.09,SW,223,0.0,-999.0,77,-99.99,,,0.00,weatherlink.com 1.10,2013-01-21 05:47:00,
2013-01-21 01:02:00,38.6,33.0,30.09,SW,223,0.0,-999.0,80,-99.99,,,0.00,weatherlink.com 1.10,2013-01-21 06:02:00,
2013-01-21 01:47:00,37.6,33.0,30.09,SW,223,0.0,-999.0,83,-99.99,,,0.00,weatherlink.com 1.10,2013-01-21 06:47:00,
2013-01-21 02:02:00,37.1,32.0,30.08,SW,223,0.0,-999.0,83,-99.99,,,0.00,weatherlink.com 1.10,2013-01-21 07:02:00,
2013-01-21 02:41:00,36.9,33.0,30.09,SW,223,0.0,-999.0,85,-99.99,,,0.00,weatherlink.com 1.10,2013-01-21 07:41:00,
2013-01-21 02:47:00,36.2,32.0,30.09,SW,223,0.0,-999.0,85,-99.99,,,0.00,weatherlink.com 1.10,2013-01-21 07:47:00,
2013-01-21 03:02:00,35.9,32.0,30.08,SW,223,0.0,-999.0,85,-99.99,,,0.00,weatherlink.com 1.10,2013-01-21 08:02:00,
2013-01-21 03:47:00,34.7,31.0,30.08,SW,223,0.0,-999.0,87,-99.99,,,0.00,weatherlink.com 1.10,2013-01-21 08:47:00,
2013-01-21 04:02:00,34.5,31.0,30.08,SW,223,0.0,-999.0,88,-99.99,,,0.00,weatherlink.com 1.10,2013-01-21 09:02:00,
2013-01-21 04:41:00,34.4,32.0,30.08,SW,223,0.0,-999.0,89,-99.99,,,0.00,weatherlink.com 1.10,2013-01-21 09:41:00,
2013-01-21 04:47:00,33.4,31.0,30.07,SW,223,0.0,-999.0,89,-99.99,,,0.00,weatherlink.com 1.10,2013-01-21 09:47:00,
2013-01-21 05:02:00,33.1,30.0,30.07,SW,223,0.0,-999.0,89,-99.99,,,0.00,weatherlink.com 1.10,2013-01-21 10:02:00,
2013-01-21 05:41:00,33.1,31.0,30.07,SW,223,0.0,-999.0,90,-99.99,,,0.00,weatherlink.com 1.10,2013-01-21 10:41:00,
2013-01-21 05:47:00,32.8,30.0,30.08,SW,223,0.0,-999.0,90,-99.99,,,0.00,weatherlink.com 1.10,2013-01-21 10:47:00,
2013-01-21 06:02:00,32.4,30.0,30.08,SW,223,0.0,-999.0,90,-99.99,,,0.00,weatherlink.com 1.10,2013-01-21 11:02:00,
2013-01-21 06:47:00,31.7,29.0,30.07,SW,223,0.0,-999.0,91,-99.99,,,0.00,weatherlink.com 1.10,2013-01-21 11:47:00,
2013-01-21 07:02:00,31.5,29.0,30.07,SW,223,0.0,-999.0,91,-99.99,,,0.00,weatherlink.com 1.10,2013-01-21 12:02:00,
2013-01-21 07:41:00,31.3,29.0,30.08,SW,223,0.0,-999.0,91,-99.99,,,0.00,weatherlink.com 1.10,2013-01-21 12:41:00,
2013-01-21 07:47:00,31.0,29.0,30.08,SW,223,0.0,-999.0,92,-99.99,,,0.00,weatherlink.com 1.10,2013-01-21 12:47:00,
2013-01-21 08:02:00,30.8,29.0,30.08,SW,223,0.0,-999.0,93,-99.99,,,0.00,weatherlink.com 1.10,2013-01-21 13:02:00,
2013-01-21 08:41:00,31.1,29.0,30.08,SW,223,0.0,-999.0,93,-99.99,,,0.00,weatherlink.com 1.10,2013-01-21 13:41:00,
2013-01-21 08:47:00,32.3,31.0,30.08,SW,223,0.0,-999.0,94,-99.99,,,0.00,weatherlink.com 1.10,2013-01-21 13:47:00,
2013-01-21 09:02:00,33.0,32.0,30.08,SW,223,0.0,-999.0,94,-99.99,,,0.00,weatherlink.com 1.10,2013-01-21 14:02:00,
2013-01-21 09:41:00,34.1,33.0,30.09,SW,223,0.0,-999.0,95,-99.99,,,0.00,weatherlink.com 1.10,2013-01-21 14:41:00,
2013-01-21 09:47:00,38.5,35.0,30.08,SW,223,0.0,-999.0,86,-99.99,,,0.00,weatherlink.com 1.10,2013-01-21 14:47:00,
2013-01-21 10:02:00,40.5,35.0,30.07,WSW,240,0.0,-999.0,80,-99.99,,,0.00,weatherlink.com 1.10,2013-01-21 15:02:00,
2013-01-21 10:41:00,42.6,35.0,30.07,WSW,240,0.0,-999.0,74,-99.99,,,0.00,weatherlink.com 1.10,2013-01-21 15:41:00,
2013-01-21 10:47:00,47.3,36.0,30.07,WSW,239,0.0,-999.0,64,-99.99,,,0.00,weatherlink.com 1.10,2013-01-21 15:47:00,
2013-01-21 11:02:00,48.6,34.0,30.06,South,174,0.0,-999.0,57,-99.99,,,0.00,weatherlink.com 1.10,2013-01-21 16:02:00,
2013-01-21 11:18:00,49.9,34.0,30.05,SSW,193,0.0,-999.0,54,-99.99,,,0.00,weatherlink.com 1.10,2013-01-21 16:18:00,
2013-01-21 11:32:00,51.2,32.0,30.04,SSW,193,0.0,-999.0,49,-99.99,,,0.00,weatherlink.com 1.10,2013-01-21 16:32:00,
2013-01-21 11:48:00,52.6,32.0,30.02,SSW,193,0.0,-999.0,46,-99.99,,,0.00,weatherlink.com 1.10,2013-01-21 16:48:00,
2013-01-21 12:14:00,52.6,32.0,30.02,SSW,193,0.0,-999.0,45,-99.99,,,0.00,weatherlink.com 1.10,2013-01-21 17:14:00,
2013-01-21 12:33:00,53.9,30.0,29.99,SSW,198,0.0,-999.0,41,-99.99,,,0.00,weatherlink.com 1.10,2013-01-21 17:33:00,
2013-01-21 12:48:00,54.2,30.0,29.98,South,178,0.0,-999.0,40,-99.99,,,0.00,weatherlink.com 1.10,2013-01-21 17:48:00,
2013-01-21 13:14:00,54.2,30.0,29.98,South,178,0.0,-999.0,40,-99.99,,,0.00,weatherlink.com 1.10,2013-01-21 18:14:00,
2013-01-21 13:33:00,55.8,32.0,29.95,South,190,0.0,-999.0,40,-99.99,,,0.00,weatherlink.com 1.10,2013-01-21 18:33:00,
2013-01-21 13:48:00,56.4,33.0,29.94,South,180,0.0,-999.0,41,-99.99,,,0.00,weatherlink.com 1.10,2013-01-21 18:48:00,
2013-01-21 14:14:00,56.4,33.0,29.94,SSW,195,0.0,-999.0,41,-99.99,,,0.00,weatherlink.com 1.10,2013-01-21 19:14:00,
2013-01-21 14:33:00,58.5,31.0,29.91,SSW,194,0.0,-999.0,35,-99.99,,,0.00,weatherlink.com 1.10,2013-01-21 19:33:00,
2013-01-21 14:48:00,58.6,31.0,29.91,WSW,248,1.0,-999.0,35,-99.99,,,0.00,weatherlink.com 1.10,2013-01-21 19:48:00,
2013-01-21 15:14:00,58.6,31.0,29.91,SSW,205,1.0,-999.0,35,-99.99,,,0.00,weatherlink.com 1.10,2013-01-21 20:14:00,
2013-01-21 15:32:00,58.5,31.0,29.89,SSW,194,2.0,-999.0,35,-99.99,,,0.00,weatherlink.com 1.10,2013-01-21 20:32:00,
2013-01-21 15:47:00,58.4,31.0,29.89,South,181,1.0,-999.0,36,-99.99,,,0.00,weatherlink.com 1.10,2013-01-21 20:47:00,
2013-01-21 16:14:00,58.4,31.0,29.89,South,180,1.0,-999.0,36,-99.99,,,0.00,weatherlink.com 1.10,2013-01-21 21:14:00,
2013-01-21 16:48:00,58.1,32.0,29.88,SSW,192,0.0,-999.0,37,-99.99,,,0.00,weatherlink.com 1.10,2013-01-21 21:48:00,
2013-01-21 17:02:00,57.9,32.0,29.87,SSW,194,0.0,-999.0,37,-99.99,,,0.00,weatherlink.com 1.10,2013-01-21 22:02:00,
2013-01-21 17:17:00,57.4,30.0,29.87,South,188,0.0,-999.0,35,-99.99,,,0.00,weatherlink.com 1.10,2013-01-21 22:17:00,
2013-01-21 17:47:00,57.3,30.0,29.87,SSW,212,1.0,-999.0,36,-99.99,,,0.00,weatherlink.com 1.10,2013-01-21 22:47:00,
2013-01-21 18:03:00,55.7,30.0,29.88,SSW,199,0.0,-999.0,38,-99.99,,,0.00,weatherlink.com 1.10,2013-01-21 23:03:00,
2013-01-21 18:18:00,55.2,31.0,29.88,SSW,199,0.0,-999.0,40,-99.99,,,0.00,weatherlink.com 1.10,2013-01-21 23:18:00,
2013-01-21 18:47:00,55.1,31.0,29.88,SSW,199,0.0,-999.0,40,-99.99,,,0.00,weatherlink.com 1.10,2013-01-21 23:47:00,
2013-01-21 19:03:00,52.6,33.0,29.89,SSW,199,0.0,-999.0,48,-99.99,,,0.00,weatherlink.com 1.10,2013-01-22 00:03:00,
2013-01-21 19:18:00,50.9,33.0,29.90,SSW,199,0.0,-999.0,50,-99.99,,,0.00,weatherlink.com 1.10,2013-01-22 00:18:00,
2013-01-21 19:47:00,50.7,32.0,29.90,SSW,199,0.0,-999.0,49,-99.99,,,0.00,weatherlink.com 1.10,2013-01-22 00:47:00,
2013-01-21 20:03:00,50.2,28.0,29.92,SSW,200,1.0,-999.0,43,-99.99,,,0.00,weatherlink.com 1.10,2013-01-22 01:03:00,
2013-01-21 20:18:00,50.5,27.0,29.93,SSW,205,0.0,-999.0,41,-99.99,,,0.00,weatherlink.com 1.10,2013-01-22 01:18:00,
2013-01-21 20:46:00,50.4,27.0,29.93,South,190,0.0,-999.0,41,-99.99,,,0.00,weatherlink.com 1.10,2013-01-22 01:46:00,
2013-01-21 21:02:00,49.5,21.0,29.94,South,178,1.0,-999.0,32,-99.99,,,0.00,weatherlink.com 1.10,2013-01-22 02:02:00,
2013-01-21 21:17:00,49.0,21.0,29.95,SW,215,1.0,-999.0,33,-99.99,,,0.00,weatherlink.com 1.10,2013-01-22 02:17:00,
2013-01-21 21:46:00,48.8,20.0,29.95,SW,215,1.0,-999.0,32,-99.99,,,0.00,weatherlink.com 1.10,2013-01-22 02:46:00,
2013-01-21 22:02:00,47.2,20.0,29.95,SW,223,0.0,-999.0,34,-99.99,,,0.00,weatherlink.com 1.10,2013-01-22 03:02:00,
2013-01-21 22:17:00,46.7,20.0,29.95,SSW,205,0.0,-999.0,35,-99.99,,,0.00,weatherlink.com 1.10,2013-01-22 03:17:00,
2013-01-21 22:46:00,46.5,19.0,29.96,SSW,205,0.0,-999.0,34,-99.99,,,0.00,weatherlink.com 1.10,2013-01-22 03:46:00,
2013-01-21 23:02:00,45.3,18.0,29.96,SSW,202,0.0,-999.0,34,-99.99,,,0.00,weatherlink.com 1.10,2013-01-22 04:02:00,
2013-01-21 23:17:00,44.9,19.0,29.96,South,185,0.0,-999.0,36,-99.99,,,0.00,weatherlink.com 1.10,2013-01-22 04:17:00,
2013-01-21 23:46:00,44.9,19.0,29.96,SSW,208,0.0,-999.0,35,-99.99,,,0.00,weatherlink.com 1.10,2013-01-22 04:46:00,